createdAt,value
2022-08-18T00:02:02.848Z,5.13
2022-08-18T00:04:36.576Z,4.40
2022-08-18T00:07:10.184Z,4.40
2022-08-18T00:09:39.670Z,4.50
2022-08-18T00:12:09.563Z,4.27
2022-08-18T00:14:37.701Z,4.33
2022-08-18T00:17:06.920Z,4.17
2022-08-18T00:19:46.304Z,5.10
2022-08-18T00:22:18.249Z,5.10
2022-08-18T00:24:48.560Z,5.03
2022-08-18T00:27:19.581Z,4.90
2022-08-18T00:29:50.083Z,4.80
2022-08-18T00:32:21.289Z,5.53
2022-08-18T00:34:49.102Z,5.20
2022-08-18T00:37:17.546Z,5.40
2022-08-18T00:39:46.023Z,5.20
2022-08-18T00:42:27.756Z,6.10
2022-08-18T00:45:00.987Z,6.37
2022-08-18T00:47:41.327Z,5.97
2022-08-18T00:50:15.427Z,6.50
2022-08-18T00:52:46.482Z,7.00
2022-08-18T00:55:14.367Z,6.80
2022-08-18T00:57:43.201Z,7.50
2022-08-18T01:00:13.945Z,8.50
2022-08-18T01:02:45.856Z,8.07
2022-08-18T01:05:17.799Z,7.73
2022-08-18T01:07:47.632Z,8.27
2022-08-18T01:10:17.169Z,8.53
2022-08-18T01:12:46.913Z,8.37
2022-08-18T01:15:27.969Z,8.27
2022-08-18T01:18:17.705Z,9.50
2022-08-18T01:21:08.560Z,9.30
2022-08-18T01:23:38.119Z,9.10
2022-08-18T01:26:06.299Z,9.20
2022-08-18T01:28:36.640Z,9.30
2022-08-18T01:31:04.849Z,10.53
2022-08-18T01:33:36.743Z,9.77
2022-08-18T01:36:17.110Z,10.93
2022-08-18T01:38:47.475Z,10.67
2022-08-18T01:41:26.111Z,11.63
2022-08-18T01:43:57.014Z,11.23
2022-08-18T01:46:25.390Z,11.43
2022-08-18T01:48:53.794Z,10.67
2022-08-18T01:51:36.621Z,11.80
2022-08-18T01:54:11.328Z,11.20
2022-08-18T01:56:39.014Z,11.40
2022-08-18T01:59:07.175Z,12.17
2022-08-18T02:01:45.345Z,12.53
2022-08-18T02:04:34.432Z,11.73
2022-08-18T02:07:05.686Z,11.63
2022-08-18T02:09:36.536Z,11.67
2022-08-18T02:12:07.343Z,12.87
2022-08-18T02:14:35.854Z,12.30
2022-08-18T02:17:05.445Z,13.10
2022-08-18T02:19:35.159Z,13.50
2022-08-18T02:22:03.303Z,12.70
2022-08-18T02:24:31.063Z,13.00
2022-08-18T02:27:00.057Z,13.80
2022-08-18T02:29:27.805Z,13.37
2022-08-18T02:31:55.540Z,13.73
2022-08-18T02:34:23.553Z,12.20
2022-08-18T02:36:51.295Z,13.17
2022-08-18T02:39:19.136Z,13.53
2022-08-18T02:41:46.961Z,14.30
2022-08-18T02:44:16.149Z,13.30
2022-08-18T02:46:43.842Z,13.37
2022-08-18T02:49:12.299Z,14.00
2022-08-18T02:51:40.157Z,12.10
2022-08-18T02:54:09.442Z,12.50
2022-08-18T02:56:42.071Z,12.63
2022-08-18T02:59:13.808Z,11.80
2022-08-18T03:01:45.301Z,12.67
2022-08-18T03:04:16.178Z,11.70
2022-08-18T03:06:45.396Z,12.20
2022-08-18T03:09:14.719Z,12.80
2022-08-18T03:11:42.713Z,11.77
2022-08-18T03:14:12.311Z,11.50
2022-08-18T03:16:53.597Z,11.90
2022-08-18T03:19:24.791Z,11.80
2022-08-18T03:21:53.216Z,12.40
2022-08-18T03:24:22.960Z,11.17
2022-08-18T03:26:52.750Z,10.40
2022-08-18T03:29:20.847Z,11.00
2022-08-18T03:31:48.783Z,12.00
2022-08-18T03:34:19.420Z,12.70
2022-08-18T03:36:49.178Z,11.20
2022-08-18T03:39:16.781Z,12.60
2022-08-18T03:42:00.190Z,13.13
2022-08-18T03:44:30.477Z,14.23
2022-08-18T03:46:58.431Z,13.53
2022-08-18T03:49:26.860Z,14.40
2022-08-18T03:51:56.046Z,14.77
2022-08-18T03:54:24.058Z,14.40
2022-08-18T03:56:51.676Z,15.70
2022-08-18T03:59:21.708Z,15.50
2022-08-18T04:01:51.452Z,15.40
2022-08-18T04:04:22.053Z,14.10
2022-08-18T04:06:51.293Z,15.00
2022-08-18T04:09:20.869Z,15.00
2022-08-18T04:11:48.967Z,15.10
2022-08-18T04:14:20.450Z,15.93
2022-08-18T04:16:49.042Z,14.70
2022-08-18T04:19:26.881Z,15.73
2022-08-18T04:21:56.649Z,14.47
2022-08-18T04:24:28.109Z,14.20
2022-08-18T04:27:00.755Z,13.27
2022-08-18T04:29:28.780Z,13.37
2022-08-18T04:31:56.569Z,16.30
2022-08-18T04:34:24.580Z,15.40
2022-08-18T04:36:54.457Z,14.53
2022-08-18T04:39:23.038Z,13.27
2022-08-18T04:41:52.866Z,15.40
2022-08-18T04:44:21.766Z,13.87
2022-08-18T04:46:52.111Z,14.07
2022-08-18T04:49:20.659Z,15.00
2022-08-18T04:52:34.157Z,13.70
2022-08-18T04:54:58.138Z,14.70
2022-08-18T04:57:27.087Z,14.00
2022-08-18T04:59:55.116Z,13.27
2022-08-18T05:02:23.230Z,13.27
2022-08-18T05:04:52.478Z,13.50
2022-08-18T05:07:23.535Z,12.93
2022-08-18T05:09:51.942Z,13.17
2022-08-18T05:12:20.503Z,12.43
2022-08-18T05:14:57.294Z,13.40
2022-08-18T05:17:28.877Z,12.00
2022-08-18T05:19:58.849Z,12.03
2022-08-18T05:22:28.734Z,11.60
2022-08-18T05:24:59.808Z,12.10
2022-08-18T05:27:32.912Z,12.60
2022-08-18T05:30:02.550Z,12.23
2022-08-18T05:32:47.204Z,12.77
2022-08-18T05:35:22.657Z,12.50
2022-08-18T05:38:04.173Z,13.60
2022-08-18T05:40:32.230Z,13.60
2022-08-18T05:43:00.471Z,13.97
2022-08-18T05:45:30.116Z,12.37
2022-08-18T05:48:00.044Z,13.07
2022-08-18T05:50:29.133Z,12.73
2022-08-18T05:52:59.272Z,13.20
2022-08-18T05:55:50.365Z,13.90
2022-08-18T05:58:21.449Z,13.17
2022-08-18T06:00:58.755Z,12.20
2022-08-18T06:03:30.407Z,13.53
2022-08-18T06:06:16.079Z,12.40
2022-08-18T06:08:46.900Z,14.63
2022-08-18T06:11:22.446Z,12.70
2022-08-18T06:13:51.673Z,13.47
2022-08-18T06:16:38.253Z,15.10
2022-08-18T06:19:21.188Z,15.80
2022-08-18T06:21:54.937Z,14.27
2022-08-18T06:24:29.669Z,14.80
2022-08-18T06:27:02.505Z,16.87
2022-08-18T06:29:40.902Z,15.30
2022-08-18T06:32:18.064Z,16.97
2022-08-18T06:34:56.224Z,16.90
2022-08-18T06:37:29.690Z,15.93
2022-08-18T06:39:58.365Z,16.77
2022-08-18T06:42:30.674Z,19.33
2022-08-18T06:45:02.103Z,18.50
2022-08-18T06:47:40.699Z,17.03
2022-08-18T06:50:13.215Z,16.90
2022-08-18T06:52:53.075Z,18.70
2022-08-18T06:55:33.598Z,18.70
2022-08-18T06:58:03.217Z,17.80
2022-08-18T07:00:32.903Z,18.17
2022-08-18T07:03:06.819Z,16.30
2022-08-18T07:05:36.295Z,17.70
2022-08-18T07:08:12.489Z,18.80
2022-08-18T07:10:42.624Z,18.70
2022-08-18T07:13:26.682Z,22.13
2022-08-18T07:15:55.864Z,26.60
2022-08-18T07:18:29.960Z,26.97
2022-08-18T07:20:59.666Z,29.70
2022-08-18T07:23:30.659Z,29.73
2022-08-18T07:26:07.000Z,33.33
2022-08-18T07:28:37.763Z,32.57
2022-08-18T07:31:17.287Z,33.43
2022-08-18T07:33:50.543Z,33.57
2022-08-18T07:36:18.407Z,34.03
2022-08-18T07:38:50.125Z,34.67
2022-08-18T07:41:20.959Z,37.83
2022-08-18T07:43:59.466Z,37.60
2022-08-18T07:46:35.171Z,36.10
2022-08-18T07:49:06.353Z,33.33
2022-08-18T07:51:43.824Z,34.57
2022-08-18T07:54:45.303Z,36.50
2022-08-18T07:57:12.590Z,36.20
2022-08-18T07:59:49.338Z,35.07
2022-08-18T08:02:33.659Z,35.13
2022-08-18T08:05:09.020Z,35.57
2022-08-18T08:07:44.201Z,36.90
2022-08-18T08:10:25.716Z,32.47
2022-08-18T08:13:09.323Z,32.97
2022-08-18T08:15:44.227Z,34.33
2022-08-18T08:18:15.148Z,37.10
2022-08-18T08:20:48.905Z,36.90
2022-08-18T08:23:28.713Z,35.80
2022-08-18T08:26:24.972Z,36.87
2022-08-18T08:28:59.984Z,37.63
2022-08-18T08:31:38.335Z,40.40
2022-08-18T08:34:10.910Z,39.33
2022-08-18T08:36:44.906Z,42.10
2022-08-18T08:39:17.110Z,38.70
2022-08-18T08:41:49.406Z,41.53
2022-08-18T08:44:22.389Z,43.67
2022-08-18T08:46:55.823Z,43.00
2022-08-18T08:49:35.142Z,36.70
2022-08-18T08:52:08.157Z,34.23
2022-08-18T08:54:42.443Z,31.57
2022-08-18T08:57:10.980Z,30.23
2022-08-18T08:59:40.211Z,27.30
2022-08-18T09:02:47.746Z,28.00
2022-08-18T09:05:19.872Z,27.67
2022-08-18T09:08:03.219Z,26.47
2022-08-18T09:10:41.909Z,28.43
2022-08-18T09:13:29.167Z,26.47
2022-08-18T09:16:11.078Z,27.60
2022-08-18T09:18:50.288Z,29.17
2022-08-18T09:21:27.384Z,27.07
2022-08-18T09:24:06.394Z,25.63
2022-08-18T09:26:44.104Z,27.20
2022-08-18T09:29:23.308Z,28.60
2022-08-18T09:32:35.462Z,27.23
2022-08-18T09:35:14.737Z,26.30
2022-08-18T09:38:08.606Z,25.70
2022-08-18T09:41:03.828Z,26.97
2022-08-18T09:43:36.683Z,28.20
2022-08-18T09:46:06.208Z,29.67
2022-08-18T09:48:36.256Z,27.57
2022-08-18T09:51:24.542Z,29.90
2022-08-18T09:54:21.193Z,28.70
2022-08-18T09:57:19.560Z,30.20
2022-08-18T10:00:19.742Z,30.90
2022-08-18T10:03:14.462Z,28.93
2022-08-18T10:05:57.580Z,30.27
2022-08-18T10:08:42.909Z,28.40
2022-08-18T10:11:29.218Z,29.70
2022-08-18T10:14:09.648Z,28.80
2022-08-18T10:17:13.207Z,30.70
2022-08-18T10:19:39.795Z,29.97
2022-08-18T10:22:10.249Z,28.10
2022-08-18T10:24:41.958Z,28.43
2022-08-18T10:27:16.367Z,26.30
2022-08-18T10:29:51.472Z,27.70
2022-08-18T10:32:49.480Z,24.23
2022-08-18T10:35:58.436Z,24.80
2022-08-18T10:38:31.105Z,27.37
2022-08-18T10:41:09.735Z,25.77
2022-08-18T10:43:55.958Z,25.10
2022-08-18T10:46:32.832Z,25.43
2022-08-18T10:49:18.264Z,26.40
2022-08-18T10:52:01.403Z,25.30
2022-08-18T10:54:39.147Z,23.40
2022-08-18T10:57:35.476Z,25.27
2022-08-18T11:00:09.837Z,24.30
2022-08-18T11:03:01.949Z,24.30
2022-08-18T11:05:36.595Z,25.23
2022-08-18T11:08:16.061Z,23.33
2022-08-18T11:11:27.677Z,24.60
2022-08-18T11:14:04.163Z,23.70
2022-08-18T11:16:46.586Z,23.07
2022-08-18T11:19:21.051Z,23.90
2022-08-18T11:21:51.261Z,23.27
2022-08-18T11:24:21.970Z,23.33
2022-08-18T11:26:52.886Z,19.63
2022-08-18T11:29:24.126Z,23.30
2022-08-18T11:31:54.761Z,21.90
2022-08-18T11:34:35.756Z,20.23
2022-08-18T11:37:09.484Z,16.57
2022-08-18T11:39:44.380Z,15.77
2022-08-18T11:42:24.966Z,18.00
2022-08-18T11:44:56.553Z,15.30
2022-08-18T11:47:27.636Z,16.30
2022-08-18T11:50:08.414Z,16.83
2022-08-18T11:52:53.909Z,15.93
2022-08-18T11:55:35.101Z,15.97
2022-08-18T11:58:05.552Z,15.30
2022-08-18T12:00:54.431Z,16.90
2022-08-18T12:03:30.231Z,15.40
2022-08-18T12:06:34.553Z,13.00
2022-08-18T12:09:05.890Z,12.10
2022-08-18T12:11:35.724Z,12.93
2022-08-18T12:14:31.898Z,13.00
2022-08-18T12:17:14.334Z,13.00
2022-08-18T12:19:59.511Z,12.30
2022-08-18T12:22:38.572Z,11.50
2022-08-18T12:25:12.323Z,11.73
2022-08-18T12:27:40.443Z,10.97
2022-08-18T12:30:16.554Z,10.90
2022-08-18T12:32:49.043Z,10.60
2022-08-18T12:38:13.074Z,11.83
2022-08-18T12:40:42.229Z,9.77
2022-08-18T12:43:10.549Z,8.63
2022-08-18T12:45:38.507Z,11.00
2022-08-18T12:48:07.742Z,10.30
2022-08-18T12:53:29.709Z,10.20
2022-08-18T12:56:07.307Z,9.57
2022-08-18T12:58:36.620Z,9.67
2022-08-18T13:01:04.403Z,10.00
2022-08-18T13:03:35.263Z,9.67
2022-08-18T13:06:04.839Z,8.93
2022-08-18T13:08:47.751Z,8.20
2022-08-18T13:11:23.551Z,10.80
2022-08-18T13:13:56.589Z,9.43
2022-08-18T13:16:39.045Z,8.60
2022-08-18T13:19:14.698Z,9.40
2022-08-18T13:21:43.141Z,8.37
2022-08-18T13:24:13.011Z,11.00
2022-08-18T13:26:45.899Z,10.83
2022-08-18T13:29:14.266Z,9.47
2022-08-18T13:31:49.289Z,9.00
2022-08-18T13:34:24.419Z,8.83
2022-08-18T13:36:52.135Z,7.30
2022-08-18T13:39:23.556Z,8.60
2022-08-18T13:41:54.603Z,8.20
2022-08-18T13:44:25.906Z,9.40
2022-08-18T13:46:55.542Z,9.30
2022-08-18T13:49:30.501Z,10.37
2022-08-18T13:51:59.184Z,10.20
2022-08-18T13:54:35.210Z,9.90
2022-08-18T13:57:03.795Z,11.00
2022-08-18T13:59:34.162Z,10.70
2022-08-18T14:02:05.837Z,10.43
2022-08-18T14:04:38.598Z,10.67
2022-08-18T14:07:10.951Z,11.47
2022-08-18T14:09:41.597Z,10.90
2022-08-18T14:12:23.252Z,10.17
2022-08-18T14:14:52.986Z,10.10
2022-08-18T14:17:22.433Z,9.87
2022-08-18T14:20:10.614Z,9.70
2022-08-18T14:23:00.882Z,9.97
2022-08-18T14:25:47.216Z,9.63
2022-08-18T14:28:15.115Z,12.10
2022-08-18T14:30:50.723Z,8.67
2022-08-18T14:33:27.251Z,9.63
2022-08-18T14:36:05.874Z,8.47
2022-08-18T14:38:38.249Z,9.23
2022-08-18T14:41:09.241Z,9.63
2022-08-18T14:44:00.421Z,12.70
2022-08-18T14:46:30.233Z,11.60
2022-08-18T14:49:00.168Z,10.20
2022-08-18T14:51:33.660Z,14.07
2022-08-18T14:54:01.990Z,13.57
2022-08-18T14:56:33.337Z,13.77
2022-08-18T14:59:07.983Z,14.67
2022-08-18T15:01:36.157Z,13.93
2022-08-18T15:04:18.667Z,12.87
2022-08-18T15:06:55.864Z,12.70
2022-08-18T15:09:24.291Z,13.13
2022-08-18T15:11:58.364Z,14.80
2022-08-18T15:14:32.927Z,12.67
2022-08-18T15:17:02.709Z,14.20
2022-08-18T15:19:58.398Z,15.87
2022-08-18T15:22:35.550Z,15.80
2022-08-18T15:25:24.008Z,13.87
2022-08-18T15:27:54.156Z,13.87
2022-08-18T15:30:22.807Z,13.90
2022-08-18T15:32:51.272Z,11.07
2022-08-18T15:35:20.250Z,12.23
2022-08-18T15:37:51.280Z,12.20
2022-08-18T15:40:35.902Z,11.07
2022-08-18T15:43:10.580Z,11.80
2022-08-18T15:45:56.229Z,11.80
2022-08-18T15:48:27.869Z,11.00
2022-08-18T15:50:56.056Z,11.13
2022-08-18T15:53:29.847Z,10.70
2022-08-18T15:55:58.200Z,10.67
2022-08-18T15:58:33.193Z,11.03
2022-08-18T16:01:00.804Z,11.40
2022-08-18T16:03:29.054Z,11.77
2022-08-18T16:05:56.805Z,10.27
2022-08-18T16:08:26.330Z,9.83
2022-08-18T16:10:54.903Z,10.57
2022-08-18T16:13:24.555Z,9.87
2022-08-18T16:15:53.677Z,9.33
2022-08-18T16:18:21.994Z,9.20
2022-08-18T16:20:52.820Z,7.70
2022-08-18T16:23:24.560Z,9.27
2022-08-18T16:25:52.364Z,8.60
2022-08-18T16:28:20.000Z,7.93
2022-08-18T16:30:47.792Z,7.50
2022-08-18T16:33:17.118Z,7.73
2022-08-18T16:35:47.579Z,8.10
2022-08-18T16:38:15.229Z,7.77
2022-08-18T16:40:42.828Z,8.10
2022-08-18T16:43:11.685Z,6.47
2022-08-18T16:45:42.646Z,7.70
2022-08-18T16:48:11.862Z,7.00
2022-08-18T16:50:45.724Z,7.97
2022-08-18T16:53:13.476Z,7.10
2022-08-18T16:55:43.238Z,7.27
2022-08-18T16:58:28.363Z,7.03
2022-08-18T17:01:15.645Z,7.33
2022-08-18T17:04:04.299Z,6.53
2022-08-18T17:06:47.073Z,6.53
2022-08-18T17:09:15.293Z,6.40
2022-08-18T17:11:51.434Z,7.33
2022-08-18T17:14:20.763Z,7.50
2022-08-18T17:16:51.102Z,6.90
2022-08-18T17:19:18.926Z,7.40
2022-08-18T17:21:48.697Z,6.97
2022-08-18T17:24:17.426Z,7.23
2022-08-18T17:26:50.644Z,6.97
2022-08-18T17:29:24.112Z,7.07
2022-08-18T17:31:58.514Z,9.20
2022-08-18T17:34:31.655Z,8.17
2022-08-18T17:37:01.899Z,7.83
2022-08-18T17:39:32.531Z,8.53
2022-08-18T17:42:17.681Z,8.57
2022-08-18T17:44:52.660Z,8.13
2022-08-18T17:47:27.041Z,8.30
2022-08-18T17:50:27.939Z,8.10
2022-08-18T17:53:05.236Z,8.20
2022-08-18T17:55:39.489Z,9.63
2022-08-18T17:58:11.279Z,7.80
2022-08-18T18:00:40.288Z,8.67
2022-08-18T18:03:09.794Z,8.77
2022-08-18T18:05:44.728Z,8.80
2022-08-18T18:08:13.837Z,8.57
2022-08-18T18:13:32.902Z,8.90
2022-08-18T18:16:02.064Z,9.07
2022-08-18T18:18:36.838Z,9.23
2022-08-18T18:21:08.721Z,8.80
2022-08-18T18:23:41.214Z,9.77
2022-08-18T18:26:29.408Z,9.50
2022-08-18T18:29:20.054Z,8.87
2022-08-18T18:31:58.566Z,8.20
2022-08-18T18:34:30.637Z,9.00
2022-08-18T18:37:00.296Z,9.60
2022-08-18T18:39:33.652Z,9.10
2022-08-18T18:42:17.951Z,9.53
2022-08-18T18:44:54.389Z,9.07
2022-08-18T18:47:43.939Z,8.30
2022-08-18T18:50:16.484Z,8.17
2022-08-18T18:52:49.072Z,8.17
2022-08-18T18:55:21.107Z,7.87
2022-08-18T18:57:57.337Z,8.47
2022-08-18T19:00:30.076Z,7.80
2022-08-18T19:03:03.738Z,7.93
2022-08-18T19:05:37.006Z,8.47
2022-08-18T19:08:07.837Z,9.53
2022-08-18T19:10:41.284Z,7.87
2022-08-18T19:13:32.271Z,8.23
2022-08-18T19:16:06.353Z,8.07
2022-08-18T19:18:36.337Z,8.23
2022-08-18T19:22:04.239Z,9.77
2022-08-18T19:23:59.068Z,8.00
2022-08-18T19:26:32.270Z,7.60
2022-08-18T19:29:13.491Z,8.00
2022-08-18T19:31:46.153Z,7.60
2022-08-18T19:34:18.634Z,7.87
2022-08-18T19:36:53.567Z,9.10
2022-08-18T19:39:25.209Z,8.27
2022-08-18T19:41:59.439Z,8.30
2022-08-18T19:44:35.210Z,8.20
2022-08-18T19:47:08.520Z,8.00
2022-08-18T19:49:39.344Z,8.27
2022-08-18T19:52:45.906Z,9.17
2022-08-18T19:55:11.010Z,8.13
2022-08-18T19:58:01.407Z,7.73
2022-08-18T20:00:41.167Z,8.90
2022-08-18T20:03:29.572Z,7.40
2022-08-18T20:06:34.920Z,8.07
2022-08-18T20:09:13.871Z,7.80
2022-08-18T20:11:58.415Z,8.83
2022-08-18T20:14:28.263Z,8.90
2022-08-18T20:17:28.817Z,7.73
2022-08-18T20:20:18.178Z,8.93
2022-08-18T20:22:46.862Z,8.70
2022-08-18T20:25:42.990Z,8.70
2022-08-18T20:28:26.075Z,8.00
2022-08-18T20:31:01.641Z,8.00
2022-08-18T20:33:32.686Z,8.07
2022-08-18T20:36:22.970Z,9.00
2022-08-18T20:38:53.111Z,8.60
2022-08-18T20:41:50.558Z,9.43
2022-08-18T20:44:44.208Z,8.83
2022-08-18T20:47:35.689Z,8.53
2022-08-18T20:50:21.774Z,9.37
2022-08-18T20:53:00.559Z,8.27
2022-08-18T20:55:31.152Z,9.00
2022-08-18T20:58:03.563Z,8.87
2022-08-18T21:00:31.558Z,7.73
2022-08-18T21:03:01.040Z,7.60
2022-08-18T21:05:33.401Z,8.00
2022-08-18T21:08:04.622Z,8.50
2022-08-18T21:10:33.356Z,9.10
2022-08-18T21:13:03.566Z,8.83
2022-08-18T21:15:35.522Z,8.60
2022-08-18T21:18:06.627Z,8.63
2022-08-18T21:20:34.645Z,7.90
2022-08-18T21:23:06.444Z,8.80
2022-08-18T21:25:34.337Z,8.30
2022-08-18T21:28:03.825Z,8.17
2022-08-18T21:30:32.612Z,9.10
2022-08-18T21:33:00.187Z,7.97
2022-08-18T21:35:32.895Z,8.80
2022-08-18T21:38:02.084Z,9.17
2022-08-18T21:40:36.412Z,8.63
2022-08-18T21:43:04.214Z,8.70
2022-08-18T21:45:32.609Z,8.47
2022-08-18T21:48:07.723Z,9.27
2022-08-18T21:50:37.416Z,9.00
2022-08-18T21:53:17.321Z,9.57
2022-08-18T21:55:47.802Z,9.50
2022-08-18T21:58:19.691Z,10.70
2022-08-18T22:01:11.616Z,10.33
2022-08-18T22:03:51.539Z,9.67
2022-08-18T22:06:27.222Z,9.97
2022-08-18T22:08:57.918Z,9.60
2022-08-18T22:12:00.467Z,9.50
2022-08-18T22:14:53.628Z,10.47
2022-08-18T22:17:27.446Z,10.60
2022-08-18T22:19:55.416Z,11.03
2022-08-18T22:22:44.537Z,11.47
2022-08-18T22:25:12.980Z,11.70
2022-08-18T22:27:41.036Z,11.13
2022-08-18T22:30:09.291Z,10.17
2022-08-18T22:32:38.848Z,11.10
2022-08-18T22:35:07.892Z,10.10
2022-08-18T22:37:46.303Z,11.33
2022-08-18T22:40:21.847Z,12.07
2022-08-18T22:42:50.338Z,11.30
2022-08-18T22:45:19.011Z,12.70
2022-08-18T22:47:46.615Z,12.50
2022-08-18T22:50:14.989Z,12.70
2022-08-18T22:52:47.474Z,12.60
2022-08-18T22:55:24.067Z,13.07
2022-08-18T22:57:55.631Z,13.50
2022-08-18T23:00:25.297Z,13.03
2022-08-18T23:02:53.753Z,13.13
2022-08-18T23:05:21.699Z,14.40
2022-08-18T23:07:50.722Z,13.80
2022-08-18T23:10:18.506Z,16.20
2022-08-18T23:12:47.985Z,16.37
2022-08-18T23:15:16.675Z,15.23
2022-08-18T23:17:44.403Z,15.90
2022-08-18T23:20:17.591Z,16.40
2022-08-18T23:22:47.058Z,16.33
2022-08-18T23:25:17.089Z,17.67
2022-08-18T23:27:44.728Z,16.73
2022-08-18T23:30:12.759Z,16.80
2022-08-18T23:32:40.387Z,16.70
2022-08-18T23:35:08.716Z,17.50
2022-08-18T23:37:36.270Z,14.67
2022-08-18T23:40:04.595Z,15.40
2022-08-18T23:42:33.592Z,15.80
2022-08-18T23:45:03.794Z,14.87
2022-08-18T23:47:31.565Z,15.23
2022-08-18T23:49:59.603Z,15.77
2022-08-18T23:52:27.164Z,15.47
2022-08-18T23:54:55.072Z,17.03
2022-08-18T23:57:22.696Z,16.73
2022-08-18T23:59:51.603Z,17.77
